sensor_id;sensor_type;location;lat;lon;timestamp;pressure;altitude;pressure_sealevel;temperature;humidity
39699;BME280;25372;50.582;12.250;2022-07-21T00:10:14;99805.41;;;19.66;63.78
39699;BME280;25372;50.582;12.250;2022-07-21T00:20:35;99792.50;;;19.34;64.77
39699;BME280;25372;50.582;12.250;2022-07-21T00:30:57;99802.69;;;19.49;64.48
39699;BME280;25372;50.582;12.250;2022-07-21T00:41:18;99752.41;;;19.15;65.42
39699;BME280;25372;50.582;12.250;2022-07-21T00:51:41;99799.19;;;19.48;64.98
39699;BME280;25372;50.582;12.250;2022-07-21T01:02:02;99785.94;;;19.13;65.38
39699;BME280;25372;50.582;12.250;2022-07-21T01:12:24;99851.97;;;19.55;61.35
39699;BME280;25372;50.582;12.250;2022-07-21T01:22:48;99859.66;;;20.14;59.18
39699;BME280;25372;50.582;12.250;2022-07-21T01:33:09;99862.66;;;19.66;61.70
39699;BME280;25372;50.582;12.250;2022-07-21T01:43:31;99853.81;;;19.83;60.53
39699;BME280;25372;50.582;12.250;2022-07-21T01:53:52;99860.88;;;19.72;59.13
39699;BME280;25372;50.582;12.250;2022-07-21T02:04:14;99873.81;;;19.29;62.98
39699;BME280;25372;50.582;12.250;2022-07-21T02:14:35;99880.81;;;19.59;60.92
39699;BME280;25372;50.582;12.250;2022-07-21T02:24:57;99881.88;;;19.58;60.27
39699;BME280;25372;50.582;12.250;2022-07-21T02:35:18;99900.63;;;19.82;60.43
39699;BME280;25372;50.582;12.250;2022-07-21T02:45:40;99900.81;;;20.48;59.91
39699;BME280;25372;50.582;12.250;2022-07-21T02:56:03;99920.69;;;20.64;61.30
39699;BME280;25372;50.582;12.250;2022-07-21T03:06:25;99928.06;;;21.57;60.63
39699;BME280;25372;50.582;12.250;2022-07-21T03:16:46;99918.03;;;22.18;59.05
39699;BME280;25372;50.582;12.250;2022-07-21T03:27:08;99937.75;;;22.51;58.41
39699;BME280;25372;50.582;12.250;2022-07-21T03:37:28;99924.19;;;22.40;58.38
39699;BME280;25372;50.582;12.250;2022-07-21T03:47:51;99937.41;;;22.37;59.16
39699;BME280;25372;50.582;12.250;2022-07-21T03:58:12;99943.16;;;22.18;58.87
39699;BME280;25372;50.582;12.250;2022-07-21T04:08:36;99965.06;;;22.22;59.87
39699;BME280;25372;50.582;12.250;2022-07-21T04:18:56;99978.69;;;22.05;60.92
39699;BME280;25372;50.582;12.250;2022-07-21T04:29:18;99966.59;;;21.80;61.70
39699;BME280;25372;50.582;12.250;2022-07-21T04:39:39;99988.59;;;22.59;59.17
39699;BME280;25372;50.582;12.250;2022-07-21T04:50:01;99983.81;;;23.14;57.84
39699;BME280;25372;50.582;12.250;2022-07-21T05:00:23;99995.28;;;23.47;55.73
39699;BME280;25372;50.582;12.250;2022-07-21T05:10:46;99993.25;;;24.06;53.99
39699;BME280;25372;50.582;12.250;2022-07-21T05:21:06;100008.44;;;24.63;54.61
39699;BME280;25372;50.582;12.250;2022-07-21T05:31:29;99998.03;;;33.22;34.30
39699;BME280;25372;50.582;12.250;2022-07-21T05:41:49;99995.38;;;35.79;30.22
39699;BME280;25372;50.582;12.250;2022-07-21T05:52:11;99994.94;;;36.05;28.63
39699;BME280;25372;50.582;12.250;2022-07-21T06:02:32;99968.88;;;37.14;26.65
39699;BME280;25372;50.582;12.250;2022-07-21T06:12:54;99970.00;;;31.95;33.59
39699;BME280;25372;50.582;12.250;2022-07-21T06:23:15;99995.69;;;28.83;39.59
39699;BME280;25372;50.582;12.250;2022-07-21T06:33:37;100006.59;;;29.11;39.58
39699;BME280;25372;50.582;12.250;2022-07-21T06:43:58;100000.38;;;28.31;38.85
39699;BME280;25372;50.582;12.250;2022-07-21T06:54:20;99987.38;;;29.16;37.96
39699;BME280;25372;50.582;12.250;2022-07-21T07:04:41;99992.94;;;28.83;39.37
39699;BME280;25372;50.582;12.250;2022-07-21T07:15:05;100008.84;;;28.48;39.63
39699;BME280;25372;50.582;12.250;2022-07-21T07:25:26;99997.69;;;28.45;39.37
39699;BME280;25372;50.582;12.250;2022-07-21T07:35:48;100020.81;;;28.66;39.08
39699;BME280;25372;50.582;12.250;2022-07-21T07:46:09;100031.06;;;29.30;37.64
39699;BME280;25372;50.582;12.250;2022-07-21T07:56:31;100021.81;;;29.68;37.58
39699;BME280;25372;50.582;12.250;2022-07-21T08:06:52;100021.75;;;30.41;36.80
39699;BME280;25372;50.582;12.250;2022-07-21T08:17:14;100022.00;;;30.08;37.35
39699;BME280;25372;50.582;12.250;2022-07-21T08:27:36;100026.56;;;29.62;38.52
39699;BME280;25372;50.582;12.250;2022-07-21T08:38:01;100019.47;;;30.57;37.56
39699;BME280;25372;50.582;12.250;2022-07-21T08:48:24;100018.69;;;36.10;27.68
39699;BME280;25372;50.582;12.250;2022-07-21T08:58:46;100035.03;;;33.96;31.18
39699;BME280;25372;50.582;12.250;2022-07-21T09:09:17;100034.91;;;32.64;32.69
39699;BME280;25372;50.582;12.250;2022-07-21T09:19:43;100042.03;;;34.61;30.46
39699;BME280;25372;50.582;12.250;2022-07-21T09:30:06;100034.84;;;34.35;31.78
39699;BME280;25372;50.582;12.250;2022-07-21T09:40:30;100050.41;;;32.60;35.90
39699;BME280;25372;50.582;12.250;2022-07-21T09:50:51;100038.53;;;32.04;37.21
39699;BME280;25372;50.582;12.250;2022-07-21T10:01:14;100033.44;;;32.76;34.63
39699;BME280;25372;50.582;12.250;2022-07-21T10:11:35;100013.25;;;31.89;36.30
39699;BME280;25372;50.582;12.250;2022-07-21T10:22:04;100037.41;;;31.70;35.74
39699;BME280;25372;50.582;12.250;2022-07-21T10:32:32;100031.69;;;30.91;36.74
39699;BME280;25372;50.582;12.250;2022-07-21T10:54:15;100045.66;;;30.58;38.27
39699;BME280;25372;50.582;12.250;2022-07-21T11:05:07;100022.66;;;29.41;40.17
39699;BME280;25372;50.582;12.250;2022-07-21T11:26:25;100087.72;;;28.59;43.32
39699;BME280;25372;50.582;12.250;2022-07-21T11:36:46;100074.06;;;28.92;44.28
39699;BME280;25372;50.582;12.250;2022-07-21T11:47:10;100095.25;;;27.91;47.73
39699;BME280;25372;50.582;12.250;2022-07-21T11:57:31;100115.06;;;27.53;47.45
39699;BME280;25372;50.582;12.250;2022-07-21T12:07:53;100117.09;;;27.42;48.23
39699;BME280;25372;50.582;12.250;2022-07-21T12:18:18;100101.59;;;27.86;47.68
39699;BME280;25372;50.582;12.250;2022-07-21T12:28:45;100108.50;;;27.01;49.24
39699;BME280;25372;50.582;12.250;2022-07-21T12:39:15;100117.69;;;27.39;50.46
39699;BME280;25372;50.582;12.250;2022-07-21T12:50:01;100116.91;;;27.34;49.12
39699;BME280;25372;50.582;12.250;2022-07-21T13:00:21;100123.41;;;28.05;46.54
39699;BME280;25372;50.582;12.250;2022-07-21T13:10:45;100115.72;;;26.86;49.63
39699;BME280;25372;50.582;12.250;2022-07-21T13:21:06;100096.53;;;25.83;52.98
39699;BME280;25372;50.582;12.250;2022-07-21T13:31:28;100061.47;;;25.16;54.56
39699;BME280;25372;50.582;12.250;2022-07-21T13:41:49;100083.72;;;24.15;64.69
39699;BME280;25372;50.582;12.250;2022-07-21T13:52:11;100062.88;;;24.93;67.88
39699;BME280;25372;50.582;12.250;2022-07-21T14:02:33;100072.88;;;24.15;64.29
39699;BME280;25372;50.582;12.250;2022-07-21T14:12:55;100084.63;;;23.67;67.71
39699;BME280;25372;50.582;12.250;2022-07-21T14:23:15;100113.53;;;23.62;66.24
39699;BME280;25372;50.582;12.250;2022-07-21T14:33:37;100084.56;;;23.52;64.51
39699;BME280;25372;50.582;12.250;2022-07-21T14:43:59;100080.81;;;23.63;65.16
39699;BME280;25372;50.582;12.250;2022-07-21T14:54:22;100078.81;;;23.33;66.42
39699;BME280;25372;50.582;12.250;2022-07-21T15:04:42;100056.91;;;23.35;65.13
39699;BME280;25372;50.582;12.250;2022-07-21T15:15:05;100069.59;;;23.34;67.93
39699;BME280;25372;50.582;12.250;2022-07-21T15:25:26;100060.63;;;23.23;70.66
39699;BME280;25372;50.582;12.250;2022-07-21T15:35:48;100053.72;;;23.53;67.05
39699;BME280;25372;50.582;12.250;2022-07-21T15:46:13;100060.94;;;23.37;70.40
39699;BME280;25372;50.582;12.250;2022-07-21T15:56:35;100032.28;;;24.46;72.38
39699;BME280;25372;50.582;12.250;2022-07-21T16:06:56;100021.50;;;28.06;60.01
39699;BME280;25372;50.582;12.250;2022-07-21T16:17:18;100010.19;;;30.75;45.83
39699;BME280;25372;50.582;12.250;2022-07-21T16:27:39;99972.81;;;32.90;40.46
39699;BME280;25372;50.582;12.250;2022-07-21T16:38:01;99960.53;;;31.75;40.30
39699;BME280;25372;50.582;12.250;2022-07-21T16:48:23;99948.28;;;31.81;40.78
39699;BME280;25372;50.582;12.250;2022-07-21T16:58:45;99933.88;;;32.19;39.79
39699;BME280;25372;50.582;12.250;2022-07-21T17:09:06;99940.06;;;32.46;38.46
39699;BME280;25372;50.582;12.250;2022-07-21T17:19:28;99926.66;;;31.36;42.07
39699;BME280;25372;50.582;12.250;2022-07-21T17:29:49;99911.72;;;29.67;44.45
39699;BME280;25372;50.582;12.250;2022-07-21T17:40:11;99909.50;;;30.86;43.28
39699;BME280;25372;50.582;12.250;2022-07-21T17:50:32;99912.94;;;28.13;50.19
39699;BME280;25372;50.582;12.250;2022-07-21T18:00:54;99907.75;;;25.90;55.59
39699;BME280;25372;50.582;12.250;2022-07-21T18:11:16;99915.09;;;25.00;58.71
39699;BME280;25372;50.582;12.250;2022-07-21T18:21:38;99920.16;;;24.11;64.06
39699;BME280;25372;50.582;12.250;2022-07-21T18:31:59;99922.25;;;23.47;67.21
39699;BME280;25372;50.582;12.250;2022-07-21T18:42:21;99929.72;;;23.14;67.88
39699;BME280;25372;50.582;12.250;2022-07-21T18:52:42;99937.47;;;22.47;71.60
39699;BME280;25372;50.582;12.250;2022-07-21T19:03:04;99938.75;;;21.74;75.13
39699;BME280;25372;50.582;12.250;2022-07-21T19:13:25;99943.81;;;21.21;78.23
39699;BME280;25372;50.582;12.250;2022-07-21T19:23:47;99952.03;;;20.70;80.99
39699;BME280;25372;50.582;12.250;2022-07-21T19:34:08;99965.44;;;20.48;82.70
39699;BME280;25372;50.582;12.250;2022-07-21T19:44:31;99963.88;;;20.35;81.32
39699;BME280;25372;50.582;12.250;2022-07-21T19:54:52;99974.41;;;20.37;79.30
39699;BME280;25372;50.582;12.250;2022-07-21T20:05:14;99973.28;;;20.67;75.71
39699;BME280;25372;50.582;12.250;2022-07-21T20:15:36;99976.00;;;20.89;74.06
39699;BME280;25372;50.582;12.250;2022-07-21T20:25:58;99970.13;;;21.36;70.95
39699;BME280;25372;50.582;12.250;2022-07-21T20:36:19;99979.66;;;21.44;71.33
39699;BME280;25372;50.582;12.250;2022-07-21T20:46:40;99983.41;;;21.65;68.77
39699;BME280;25372;50.582;12.250;2022-07-21T20:57:01;99995.38;;;21.30;74.40
39699;BME280;25372;50.582;12.250;2022-07-21T21:07:23;99988.09;;;20.52;78.38
39699;BME280;25372;50.582;12.250;2022-07-21T21:17:44;99995.38;;;20.35;76.27
39699;BME280;25372;50.582;12.250;2022-07-21T21:28:06;99996.41;;;20.34;75.67
39699;BME280;25372;50.582;12.250;2022-07-21T21:38:27;100000.41;;;20.14;76.22
39699;BME280;25372;50.582;12.250;2022-07-21T21:48:49;100000.25;;;20.38;71.92
39699;BME280;25372;50.582;12.250;2022-07-21T21:59:10;100001.41;;;20.59;69.00
39699;BME280;25372;50.582;12.250;2022-07-21T22:09:32;100005.09;;;20.36;68.86
39699;BME280;25372;50.582;12.250;2022-07-21T22:19:53;100013.13;;;20.19;70.93
39699;BME280;25372;50.582;12.250;2022-07-21T22:30:15;100011.53;;;19.89;71.61
39699;BME280;25372;50.582;12.250;2022-07-21T22:40:36;100033.06;;;19.77;69.82
39699;BME280;25372;50.582;12.250;2022-07-21T22:50:58;100045.78;;;19.94;66.47
39699;BME280;25372;50.582;12.250;2022-07-21T23:01:18;100042.06;;;19.83;68.10
39699;BME280;25372;50.582;12.250;2022-07-21T23:11:40;100045.59;;;19.72;66.25
39699;BME280;25372;50.582;12.250;2022-07-21T23:22:01;99989.38;;;19.41;65.98
39699;BME280;25372;50.582;12.250;2022-07-21T23:32:23;100035.84;;;19.54;68.63
39699;BME280;25372;50.582;12.250;2022-07-21T23:42:44;100037.97;;;19.28;71.59
39699;BME280;25372;50.582;12.250;2022-07-21T23:53:07;100044.31;;;18.74;73.11
